createdAt,value
2022-10-24T00:00:43.782Z,32.95
2022-10-24T00:03:12.246Z,34.13
2022-10-24T00:05:42.714Z,35.97
2022-10-24T00:08:12.405Z,41.25
2022-10-24T00:10:44.221Z,32.03
2022-10-24T00:13:12.926Z,36.72
2022-10-24T00:15:44.450Z,40.13
2022-10-24T00:18:12.454Z,36.63
2022-10-24T00:20:40.764Z,36.53
2022-10-24T00:23:09.427Z,33.65
2022-10-24T00:25:38.704Z,31.55
2022-10-24T00:28:06.619Z,32.15
2022-10-24T00:30:34.513Z,25.08
2022-10-24T00:33:02.394Z,20.40
2022-10-24T00:35:30.411Z,22.42
2022-10-24T00:37:58.446Z,23.52
2022-10-24T00:40:26.356Z,20.33
2022-10-24T00:42:55.637Z,24.58
2022-10-24T00:45:40.532Z,22.27
2022-10-24T00:48:17.306Z,20.15
2022-10-24T00:50:47.029Z,16.52
2022-10-24T00:53:16.227Z,16.42
2022-10-24T00:55:45.617Z,15.18
2022-10-24T00:58:16.105Z,14.00
2022-10-24T01:00:44.220Z,15.32
2022-10-24T01:03:12.784Z,16.55
2022-10-24T01:05:55.269Z,13.23
2022-10-24T01:11:06.529Z,14.02
2022-10-24T01:13:45.829Z,14.02
2022-10-24T01:16:18.861Z,11.85
2022-10-24T01:18:51.062Z,12.73
2022-10-24T01:21:31.903Z,12.57
2022-10-24T01:24:23.375Z,9.73
2022-10-24T01:27:04.115Z,10.25
2022-10-24T01:29:54.011Z,9.25
2022-10-24T01:32:30.664Z,14.45
2022-10-24T01:35:01.995Z,8.65
2022-10-24T01:37:36.558Z,10.90
2022-10-24T01:40:11.765Z,10.73
2022-10-24T01:42:42.898Z,11.63
2022-10-24T01:45:18.942Z,8.80
2022-10-24T01:47:50.794Z,11.18
2022-10-24T01:50:21.461Z,8.80
2022-10-24T01:52:50.845Z,10.63
2022-10-24T01:55:18.735Z,7.60
2022-10-24T01:57:46.647Z,9.60
2022-10-24T02:00:20.368Z,8.73
2022-10-24T02:02:53.654Z,6.72
2022-10-24T02:05:25.359Z,10.43
2022-10-24T02:07:56.474Z,9.40
2022-10-24T02:10:29.497Z,8.68
2022-10-24T02:13:01.709Z,8.80
2022-10-24T02:15:33.967Z,7.63
2022-10-24T02:18:02.589Z,10.13
2022-10-24T02:20:34.482Z,10.10
2022-10-24T02:23:06.546Z,10.68
2022-10-24T02:25:37.351Z,4.80
2022-10-24T02:28:09.359Z,9.10
2022-10-24T02:30:43.545Z,6.80
2022-10-24T02:33:12.487Z,9.13
2022-10-24T02:35:42.466Z,9.55
2022-10-24T02:38:15.092Z,7.00
2022-10-24T02:40:45.471Z,10.35
2022-10-24T02:43:14.884Z,7.53
2022-10-24T02:45:44.433Z,12.90
2022-10-24T02:48:15.324Z,7.95
2022-10-24T02:50:47.444Z,7.35
2022-10-24T02:53:17.354Z,8.48
2022-10-24T02:55:45.369Z,8.50
2022-10-24T02:58:13.285Z,9.82
2022-10-24T03:00:41.264Z,10.18
2022-10-24T03:03:10.562Z,10.02
2022-10-24T03:05:38.523Z,9.88
2022-10-24T03:08:07.053Z,13.05
2022-10-24T03:10:34.938Z,7.25
2022-10-24T03:13:03.684Z,5.50
2022-10-24T03:15:31.889Z,7.68
2022-10-24T03:17:59.842Z,6.97
2022-10-24T03:20:29.211Z,8.90
2022-10-24T03:22:57.094Z,11.32
2022-10-24T03:25:25.502Z,10.77
2022-10-24T03:27:53.391Z,12.25
2022-10-24T03:30:21.361Z,8.95
2022-10-24T03:32:49.252Z,8.30
2022-10-24T03:35:17.543Z,8.90
2022-10-24T03:37:46.816Z,15.10
2022-10-24T03:40:14.922Z,7.80
2022-10-24T03:42:43.097Z,10.73
2022-10-24T03:45:11.650Z,10.65
2022-10-24T03:47:39.526Z,8.27
2022-10-24T03:50:09.001Z,8.82
2022-10-24T03:52:36.935Z,7.50
2022-10-24T03:55:06.978Z,9.88
2022-10-24T03:57:34.883Z,13.63
2022-10-24T04:00:02.759Z,9.20
2022-10-24T04:02:30.789Z,10.98
2022-10-24T04:04:58.677Z,10.38
2022-10-24T04:07:26.565Z,11.13
2022-10-24T04:09:55.553Z,9.15
2022-10-24T04:12:25.010Z,8.60
2022-10-24T04:14:53.136Z,13.80
2022-10-24T04:17:21.015Z,8.95
2022-10-24T04:19:48.962Z,13.93
2022-10-24T04:22:17.263Z,7.35
2022-10-24T04:24:45.559Z,7.75
2022-10-24T04:27:13.484Z,9.38
2022-10-24T04:29:42.693Z,11.73
2022-10-24T04:32:10.606Z,7.53
2022-10-24T04:34:38.492Z,10.80
2022-10-24T04:37:06.651Z,10.27
2022-10-24T04:39:34.578Z,9.20
2022-10-24T04:42:02.574Z,12.50
2022-10-24T04:44:31.617Z,9.07
2022-10-24T04:47:00.872Z,13.43
2022-10-24T04:49:28.743Z,10.32
2022-10-24T04:51:56.737Z,8.13
2022-10-24T04:54:24.603Z,9.20
2022-10-24T04:56:52.475Z,11.63
2022-10-24T04:59:20.508Z,10.93
2022-10-24T05:01:48.635Z,13.02
2022-10-24T05:04:18.022Z,11.70
2022-10-24T05:06:46.331Z,9.07
2022-10-24T05:09:14.671Z,10.63
2022-10-24T05:11:42.656Z,6.65
2022-10-24T05:14:10.561Z,9.43
2022-10-24T05:16:39.799Z,12.05
2022-10-24T05:19:08.255Z,7.93
2022-10-24T05:21:37.543Z,8.82
2022-10-24T05:24:05.515Z,11.75
2022-10-24T05:26:33.406Z,12.63
2022-10-24T05:29:01.370Z,9.07
2022-10-24T05:31:29.297Z,9.77
2022-10-24T05:33:57.163Z,9.60
2022-10-24T05:36:25.033Z,8.85
2022-10-24T05:38:54.384Z,11.57
2022-10-24T05:41:22.252Z,6.45
2022-10-24T05:43:50.148Z,12.00
2022-10-24T05:46:18.005Z,9.02
2022-10-24T05:48:45.895Z,8.90
2022-10-24T05:51:13.825Z,6.68
2022-10-24T05:53:41.740Z,8.55
2022-10-24T05:56:10.999Z,7.20
2022-10-24T05:58:38.898Z,12.38
2022-10-24T06:01:07.018Z,11.93
2022-10-24T06:03:35.207Z,12.30
2022-10-24T06:06:05.625Z,7.18
2022-10-24T06:08:35.455Z,9.05
2022-10-24T06:11:03.968Z,15.07
2022-10-24T06:13:36.036Z,10.25
2022-10-24T06:16:04.551Z,10.30
2022-10-24T06:18:32.470Z,14.68
2022-10-24T06:21:01.420Z,9.50
2022-10-24T06:23:29.447Z,8.70
2022-10-24T06:25:57.360Z,10.90
2022-10-24T06:28:25.310Z,10.27
2022-10-24T06:30:55.305Z,13.05
2022-10-24T06:33:23.294Z,9.88
2022-10-24T06:35:51.177Z,9.55
2022-10-24T06:38:19.020Z,13.85
2022-10-24T06:40:46.906Z,9.85
2022-10-24T06:43:14.855Z,11.30
2022-10-24T06:45:42.831Z,10.13
2022-10-24T06:48:12.235Z,13.98
2022-10-24T06:50:40.755Z,7.60
2022-10-24T06:53:08.810Z,10.13
2022-10-24T06:55:39.765Z,10.55
2022-10-24T06:58:07.874Z,9.23
2022-10-24T07:00:35.876Z,10.00
2022-10-24T07:03:03.779Z,12.85
2022-10-24T07:05:33.059Z,7.10
2022-10-24T07:08:00.937Z,7.85
2022-10-24T07:10:28.845Z,8.07
2022-10-24T07:12:56.752Z,8.80
2022-10-24T07:15:24.834Z,7.57
2022-10-24T07:17:52.711Z,8.60
2022-10-24T07:20:20.870Z,8.43
2022-10-24T07:22:50.110Z,8.10
2022-10-24T07:25:19.197Z,12.57
2022-10-24T07:27:47.121Z,8.52
2022-10-24T07:30:19.008Z,8.77
2022-10-24T07:32:47.317Z,7.25
2022-10-24T07:35:15.536Z,7.82
2022-10-24T07:37:43.673Z,8.38
2022-10-24T07:40:14.314Z,10.57
2022-10-24T07:42:42.181Z,8.18
2022-10-24T07:45:11.429Z,6.78
2022-10-24T07:47:39.533Z,8.40
2022-10-24T07:50:08.514Z,7.35
2022-10-24T07:52:36.433Z,8.50
2022-10-24T07:55:04.596Z,10.13
2022-10-24T07:57:33.850Z,8.63
2022-10-24T08:00:01.706Z,10.77
2022-10-24T08:02:29.657Z,7.03
2022-10-24T08:04:57.554Z,7.53
2022-10-24T08:07:25.426Z,11.77
2022-10-24T08:09:53.352Z,10.10
2022-10-24T08:12:21.241Z,8.32
2022-10-24T08:14:52.263Z,9.60
2022-10-24T08:17:21.576Z,8.48
2022-10-24T08:19:49.473Z,9.10
2022-10-24T08:22:17.702Z,7.95
2022-10-24T08:24:45.868Z,10.52
2022-10-24T08:27:14.122Z,10.35
2022-10-24T08:29:42.331Z,9.23
2022-10-24T08:32:11.581Z,11.73
2022-10-24T08:34:39.822Z,9.77
2022-10-24T08:37:07.735Z,8.85
2022-10-24T08:39:35.659Z,10.88
2022-10-24T08:42:06.266Z,8.05
2022-10-24T08:44:37.822Z,10.43
2022-10-24T08:47:14.151Z,8.98
2022-10-24T08:49:50.312Z,9.95
2022-10-24T08:52:24.808Z,8.10
2022-10-24T08:54:54.978Z,11.45
2022-10-24T08:57:26.172Z,8.95
2022-10-24T08:59:59.612Z,6.82
2022-10-24T09:02:32.142Z,11.77
2022-10-24T09:05:05.484Z,10.77
2022-10-24T09:07:33.391Z,7.68
2022-10-24T09:10:07.772Z,11.52
2022-10-24T09:12:36.918Z,8.55
2022-10-24T09:15:14.790Z,12.07
2022-10-24T09:17:44.011Z,11.18
2022-10-24T09:20:23.518Z,9.05
2022-10-24T09:22:51.459Z,8.48
2022-10-24T09:25:23.179Z,9.88
2022-10-24T09:27:52.297Z,9.32
2022-10-24T09:30:22.511Z,11.75
2022-10-24T09:32:50.405Z,12.02
2022-10-24T09:35:23.156Z,8.55
2022-10-24T09:37:55.243Z,11.15
2022-10-24T09:40:24.822Z,11.57
2022-10-24T09:42:57.779Z,9.57
2022-10-24T09:45:36.890Z,11.45
2022-10-24T09:48:08.811Z,9.15
2022-10-24T09:50:42.919Z,11.15
2022-10-24T09:53:24.326Z,10.35
2022-10-24T09:55:54.263Z,9.88
2022-10-24T09:58:32.413Z,7.75
2022-10-24T10:01:03.216Z,8.13
2022-10-24T10:03:32.012Z,14.02
2022-10-24T10:06:06.197Z,8.70
2022-10-24T10:08:36.163Z,8.93
2022-10-24T10:11:07.567Z,10.20
2022-10-24T10:13:40.893Z,11.73
2022-10-24T10:16:21.417Z,12.73
2022-10-24T10:18:49.579Z,8.98
2022-10-24T10:21:20.749Z,10.45
2022-10-24T10:23:49.825Z,10.65
2022-10-24T10:26:28.299Z,9.35
2022-10-24T10:29:00.366Z,9.45
2022-10-24T10:31:35.524Z,8.48
2022-10-24T10:34:21.809Z,11.30
2022-10-24T10:37:22.597Z,9.43
2022-10-24T10:40:04.747Z,7.55
2022-10-24T10:42:40.391Z,7.00
2022-10-24T10:45:16.951Z,4.05
2022-10-24T10:47:58.236Z,10.43
2022-10-24T10:50:32.523Z,6.65
2022-10-24T10:53:22.058Z,6.97
2022-10-24T10:55:56.690Z,9.73
2022-10-24T10:58:33.848Z,6.07
2022-10-24T11:01:11.781Z,7.10
2022-10-24T11:03:46.480Z,5.30
2022-10-24T11:06:36.577Z,6.78
2022-10-24T11:09:27.434Z,6.38
2022-10-24T11:12:03.646Z,7.10
2022-10-24T11:14:34.568Z,7.40
2022-10-24T11:17:11.265Z,8.75
2022-10-24T11:19:47.903Z,6.70
2022-10-24T11:22:21.703Z,8.27
2022-10-24T11:24:58.494Z,9.73
2022-10-24T11:27:32.644Z,8.30
2022-10-24T11:30:06.737Z,7.03
2022-10-24T11:32:39.611Z,7.10
2022-10-24T11:35:26.396Z,9.95
2022-10-24T11:37:59.684Z,7.75
2022-10-24T11:40:31.181Z,6.93
2022-10-24T11:43:09.830Z,6.47
2022-10-24T11:45:46.011Z,6.32
2022-10-24T11:48:20.597Z,5.53
2022-10-24T11:50:54.009Z,8.48
2022-10-24T11:53:42.014Z,7.63
2022-10-24T11:56:17.996Z,7.32
2022-10-24T11:58:53.631Z,7.45
2022-10-24T12:02:00.322Z,6.80
2022-10-24T12:04:49.893Z,6.70
2022-10-24T12:07:59.455Z,8.38
2022-10-24T12:10:45.683Z,7.10
2022-10-24T12:13:32.871Z,8.65
2022-10-24T12:16:09.399Z,8.32
2022-10-24T12:18:40.782Z,8.77
2022-10-24T12:21:11.646Z,10.13
2022-10-24T12:23:41.719Z,7.00
2022-10-24T12:26:19.105Z,7.30
2022-10-24T12:28:57.228Z,5.82
2022-10-24T12:31:29.291Z,6.45
2022-10-24T12:34:34.426Z,4.55
2022-10-24T12:37:08.300Z,6.50
2022-10-24T12:39:38.412Z,6.00
2022-10-24T12:42:06.736Z,6.82
2022-10-24T12:44:45.439Z,6.57
2022-10-24T12:47:36.649Z,6.80
2022-10-24T12:50:42.080Z,5.68
2022-10-24T12:53:31.175Z,7.03
2022-10-24T12:58:57.916Z,8.05
2022-10-24T13:01:33.346Z,11.43
2022-10-24T13:04:39.947Z,12.55
2022-10-24T13:07:48.634Z,13.43
2022-10-24T13:10:38.850Z,12.77
2022-10-24T13:13:30.584Z,11.00
2022-10-24T13:16:06.888Z,10.30
2022-10-24T13:18:57.546Z,9.98
2022-10-24T13:21:31.047Z,13.70
2022-10-24T13:24:13.485Z,8.82
2022-10-24T13:26:44.150Z,12.52
2022-10-24T13:29:15.853Z,16.45
2022-10-24T13:31:46.934Z,11.57
2022-10-24T13:34:38.546Z,10.65
2022-10-24T13:37:16.968Z,12.90
2022-10-24T13:39:51.480Z,12.77
2022-10-24T13:42:27.817Z,14.13
2022-10-24T13:45:01.060Z,15.93
2022-10-24T13:47:33.153Z,13.38
2022-10-24T13:50:08.035Z,11.13
2022-10-24T13:52:49.080Z,14.93
2022-10-24T13:55:25.731Z,14.30
2022-10-24T13:57:57.370Z,11.52
2022-10-24T14:00:29.154Z,12.63
2022-10-24T14:02:59.786Z,10.88
2022-10-24T14:05:34.521Z,11.20
2022-10-24T14:08:03.461Z,12.32
2022-10-24T14:10:32.071Z,12.68
2022-10-24T14:13:01.311Z,11.13
2022-10-24T14:15:32.170Z,11.80
2022-10-24T14:18:02.915Z,12.60
2022-10-24T14:20:35.005Z,12.60
2022-10-24T14:23:03.487Z,15.43
2022-10-24T14:25:36.161Z,9.40
2022-10-24T14:28:11.053Z,11.65
2022-10-24T14:30:39.105Z,13.43
2022-10-24T14:33:18.625Z,15.75
2022-10-24T14:35:50.346Z,15.40
2022-10-24T14:38:21.033Z,11.43
2022-10-24T14:41:01.278Z,16.35
2022-10-24T14:43:37.364Z,14.77
2022-10-24T14:46:28.040Z,15.35
2022-10-24T14:48:56.281Z,17.73
2022-10-24T14:51:32.878Z,18.80
2022-10-24T14:54:07.465Z,14.70
2022-10-24T14:56:37.776Z,20.02
2022-10-24T14:59:08.140Z,12.90
2022-10-24T15:01:36.156Z,21.15
2022-10-24T15:04:06.410Z,17.48
2022-10-24T15:06:41.158Z,20.75
2022-10-24T15:09:20.233Z,20.33
2022-10-24T15:11:50.081Z,16.25
2022-10-24T15:14:38.145Z,16.52
2022-10-24T15:17:25.801Z,13.68
2022-10-24T15:19:58.412Z,17.80
2022-10-24T15:22:30.623Z,19.73
2022-10-24T15:27:30.524Z,17.25
2022-10-24T15:29:58.494Z,19.23
2022-10-24T15:32:26.534Z,15.25
2022-10-24T15:34:57.571Z,18.90
2022-10-24T15:37:28.604Z,18.35
2022-10-24T15:39:56.679Z,22.33
2022-10-24T15:42:24.594Z,20.20
2022-10-24T15:44:52.537Z,18.13
2022-10-24T15:47:23.755Z,21.45
2022-10-24T15:49:52.441Z,16.83
2022-10-24T15:52:20.386Z,19.90
2022-10-24T15:54:49.821Z,19.33
2022-10-24T15:57:20.051Z,19.27
2022-10-24T15:59:48.115Z,23.42
2022-10-24T16:02:21.799Z,19.63
2022-10-24T16:04:50.670Z,20.27
2022-10-24T16:07:18.798Z,18.92
2022-10-24T16:09:46.793Z,21.45
2022-10-24T16:12:16.359Z,26.15
2022-10-24T16:14:44.237Z,21.60
2022-10-24T16:17:12.259Z,23.55
2022-10-24T16:19:40.734Z,22.52
2022-10-24T16:22:08.974Z,19.15
2022-10-24T16:24:36.955Z,18.38
2022-10-24T16:27:05.038Z,25.77
2022-10-24T16:29:34.652Z,22.88
2022-10-24T16:32:02.784Z,21.45
2022-10-24T16:34:30.669Z,18.52
2022-10-24T16:36:58.575Z,23.73
2022-10-24T16:39:26.457Z,25.27
2022-10-24T16:41:55.916Z,19.67
2022-10-24T16:44:23.853Z,23.05
2022-10-24T16:46:55.298Z,21.52
2022-10-24T16:49:23.618Z,24.60
2022-10-24T16:51:51.531Z,15.68
2022-10-24T16:54:20.565Z,20.60
2022-10-24T16:56:53.640Z,18.80
2022-10-24T16:59:22.050Z,21.02
2022-10-24T17:01:50.194Z,23.48
2022-10-24T17:04:19.609Z,21.88
2022-10-24T17:06:47.539Z,19.15
2022-10-24T17:09:15.474Z,24.20
2022-10-24T17:11:46.105Z,23.92
2022-10-24T17:14:14.868Z,25.35
2022-10-24T17:16:43.590Z,24.13
2022-10-24T17:19:16.192Z,17.70
2022-10-24T17:21:48.268Z,20.65
2022-10-24T17:24:17.853Z,18.58
2022-10-24T17:26:46.020Z,20.13
2022-10-24T17:29:16.140Z,21.85
2022-10-24T17:31:44.235Z,19.92
2022-10-24T17:34:12.370Z,26.27
2022-10-24T17:36:41.231Z,19.08
2022-10-24T17:39:15.648Z,20.05
2022-10-24T17:41:45.262Z,17.25
2022-10-24T17:44:16.672Z,23.58
2022-10-24T17:46:44.929Z,19.87
2022-10-24T17:49:16.525Z,25.95
2022-10-24T17:51:47.926Z,19.73
2022-10-24T17:54:17.588Z,25.90
2022-10-24T17:56:45.885Z,26.77
2022-10-24T17:59:14.648Z,20.70
2022-10-24T18:01:43.416Z,25.58
2022-10-24T18:04:11.581Z,19.38
2022-10-24T18:06:43.097Z,19.98
2022-10-24T18:09:12.144Z,18.55
2022-10-24T18:11:41.467Z,19.02
2022-10-24T18:14:09.378Z,21.58
2022-10-24T18:16:39.163Z,19.20
2022-10-24T18:19:07.632Z,19.75
2022-10-24T18:21:35.795Z,16.27
2022-10-24T18:24:06.536Z,20.10
2022-10-24T18:26:34.662Z,16.65
2022-10-24T18:29:04.571Z,14.23
2022-10-24T18:31:34.038Z,13.32
2022-10-24T18:34:07.525Z,13.30
2022-10-24T18:36:36.959Z,15.93
2022-10-24T18:39:05.552Z,13.38
2022-10-24T18:41:46.849Z,17.23
2022-10-24T18:44:24.388Z,16.15
2022-10-24T18:46:53.946Z,16.83
2022-10-24T18:49:22.353Z,20.58
2022-10-24T18:51:59.871Z,16.40
2022-10-24T18:54:28.045Z,15.25
2022-10-24T18:56:57.224Z,13.88
2022-10-24T18:59:26.896Z,18.38
2022-10-24T19:02:07.784Z,18.25
2022-10-24T19:04:40.686Z,16.10
2022-10-24T19:07:11.132Z,12.70
2022-10-24T19:09:39.209Z,14.65
2022-10-24T19:12:08.188Z,15.27
2022-10-24T19:14:38.009Z,13.48
2022-10-24T19:17:06.009Z,16.65
2022-10-24T19:19:35.849Z,12.55
2022-10-24T19:22:03.817Z,13.27
2022-10-24T19:24:31.838Z,16.58
2022-10-24T19:26:59.726Z,13.02
2022-10-24T19:29:27.631Z,14.48
2022-10-24T19:31:56.919Z,13.63
2022-10-24T19:34:24.881Z,22.05
2022-10-24T19:36:52.805Z,17.40
2022-10-24T19:39:20.746Z,21.23
2022-10-24T19:41:48.663Z,15.45
2022-10-24T19:44:16.655Z,16.15
2022-10-24T19:46:44.557Z,15.38
2022-10-24T19:49:13.933Z,17.30
2022-10-24T19:51:41.841Z,15.90
2022-10-24T19:54:09.755Z,17.88
2022-10-24T19:56:37.811Z,16.88
2022-10-24T19:59:05.698Z,18.02
2022-10-24T20:01:33.679Z,17.83
2022-10-24T20:04:02.043Z,18.98
2022-10-24T20:06:31.371Z,19.85
2022-10-24T20:08:59.281Z,18.48
2022-10-24T20:11:27.162Z,19.33
2022-10-24T20:13:55.114Z,17.85
2022-10-24T20:16:23.505Z,20.08
2022-10-24T20:18:51.401Z,16.35
2022-10-24T20:21:20.071Z,16.25
2022-10-24T20:23:50.071Z,16.77
2022-10-24T20:26:20.447Z,17.98
2022-10-24T20:28:51.052Z,17.63
2022-10-24T20:31:20.581Z,19.13
2022-10-24T20:33:48.561Z,21.90
2022-10-24T20:36:16.475Z,17.73
2022-10-24T20:38:44.510Z,16.25
2022-10-24T20:41:13.827Z,17.17
2022-10-24T20:43:41.758Z,17.55
2022-10-24T20:46:09.729Z,19.30
2022-10-24T20:48:37.783Z,19.05
2022-10-24T20:51:08.199Z,18.90
2022-10-24T20:53:36.095Z,20.23
2022-10-24T20:56:06.175Z,21.23
2022-10-24T20:58:37.805Z,20.55
2022-10-24T21:01:10.335Z,19.92
2022-10-24T21:03:39.084Z,18.15
2022-10-24T21:06:15.788Z,18.25
2022-10-24T21:08:43.911Z,19.98
2022-10-24T21:11:15.436Z,19.27
2022-10-24T21:13:44.992Z,19.67
2022-10-24T21:16:13.346Z,20.00
2022-10-24T21:18:41.242Z,22.10
2022-10-24T21:21:11.163Z,21.40
2022-10-24T21:23:39.647Z,20.88
2022-10-24T21:26:09.580Z,20.30
2022-10-24T21:28:38.067Z,21.48
2022-10-24T21:31:08.731Z,18.02
2022-10-24T21:33:37.341Z,18.63
2022-10-24T21:36:06.802Z,19.83
2022-10-24T21:38:35.136Z,19.50
2022-10-24T21:41:03.809Z,19.70
2022-10-24T21:43:33.390Z,19.55
2022-10-24T21:46:07.807Z,18.98
2022-10-24T21:48:36.171Z,22.27
2022-10-24T21:51:06.532Z,17.83
2022-10-24T21:53:37.752Z,19.55
2022-10-24T21:56:07.959Z,19.67
2022-10-24T21:58:35.878Z,20.23
2022-10-24T22:01:11.240Z,21.52
2022-10-24T22:03:39.402Z,21.60
2022-10-24T22:06:07.574Z,22.65
2022-10-24T22:08:35.775Z,22.52
2022-10-24T22:11:05.674Z,22.02
2022-10-24T22:13:34.921Z,20.85
2022-10-24T22:16:03.242Z,22.05
2022-10-24T22:18:33.678Z,24.30
2022-10-24T22:21:03.506Z,24.35
2022-10-24T22:23:31.898Z,24.33
2022-10-24T22:26:01.247Z,25.45
2022-10-24T22:28:29.431Z,27.48
2022-10-24T22:30:57.926Z,28.95
2022-10-24T22:33:33.429Z,30.17
2022-10-24T22:36:08.155Z,33.30
2022-10-24T22:38:36.492Z,30.60
2022-10-24T22:41:05.040Z,30.73
2022-10-24T22:43:33.618Z,32.10
2022-10-24T22:46:12.340Z,30.33
2022-10-24T22:48:45.499Z,32.17
2022-10-24T22:51:17.299Z,32.10
2022-10-24T22:53:45.754Z,32.03
2022-10-24T22:56:17.262Z,33.20
2022-10-24T22:58:46.546Z,33.67
2022-10-24T23:01:24.098Z,29.92
2022-10-24T23:04:04.059Z,32.03
2022-10-24T23:06:41.122Z,28.77
2022-10-24T23:09:11.166Z,28.83
2022-10-24T23:11:39.774Z,28.27
2022-10-24T23:14:08.217Z,23.85
2022-10-24T23:16:43.410Z,27.55
2022-10-24T23:19:20.179Z,26.30
2022-10-24T23:21:52.568Z,26.00
2022-10-24T23:27:15.047Z,27.58
2022-10-24T23:29:44.941Z,28.52
2022-10-24T23:32:19.843Z,26.65
2022-10-24T23:34:50.311Z,27.20
2022-10-24T23:37:27.818Z,28.02
2022-10-24T23:39:56.339Z,27.90
2022-10-24T23:42:24.819Z,27.83
2022-10-24T23:44:53.424Z,28.73
2022-10-24T23:47:39.368Z,28.13
2022-10-24T23:50:16.694Z,31.40
2022-10-24T23:53:00.310Z,29.00
2022-10-24T23:55:28.700Z,30.33
2022-10-24T23:57:56.688Z,31.58
